sensor_id;sensor_type;location;lat;lon;timestamp;P1;durP1;ratioP1;P2;durP2;ratioP2
9938;SDS011;5008;50.656;7.188;2022-07-06T00:02:09;4.78;;;2.00;;
9938;SDS011;5008;50.656;7.188;2022-07-06T00:04:36;1.58;;;1.48;;
9938;SDS011;5008;50.656;7.188;2022-07-06T00:07:03;1.77;;;1.58;;
9938;SDS011;5008;50.656;7.188;2022-07-06T00:09:30;2.20;;;1.90;;
9938;SDS011;5008;50.656;7.188;2022-07-06T00:11:56;3.38;;;1.80;;
9938;SDS011;5008;50.656;7.188;2022-07-06T00:14:23;3.15;;;1.70;;
9938;SDS011;5008;50.656;7.188;2022-07-06T00:16:52;2.75;;;1.70;;
9938;SDS011;5008;50.656;7.188;2022-07-06T00:19:19;1.70;;;1.60;;
9938;SDS011;5008;50.656;7.188;2022-07-06T00:21:46;2.67;;;1.85;;
9938;SDS011;5008;50.656;7.188;2022-07-06T00:24:12;2.08;;;1.88;;
9938;SDS011;5008;50.656;7.188;2022-07-06T00:26:39;2.00;;;1.90;;
9938;SDS011;5008;50.656;7.188;2022-07-06T00:29:06;1.85;;;1.75;;
9938;SDS011;5008;50.656;7.188;2022-07-06T00:31:32;4.05;;;1.63;;
9938;SDS011;5008;50.656;7.188;2022-07-06T00:34:01;2.83;;;1.55;;
9938;SDS011;5008;50.656;7.188;2022-07-06T00:36:28;3.00;;;1.70;;
9938;SDS011;5008;50.656;7.188;2022-07-06T00:38:54;3.88;;;2.10;;
9938;SDS011;5008;50.656;7.188;2022-07-06T00:41:21;2.50;;;1.55;;
9938;SDS011;5008;50.656;7.188;2022-07-06T00:43:52;3.10;;;1.92;;
9938;SDS011;5008;50.656;7.188;2022-07-06T00:46:21;4.22;;;2.40;;
9938;SDS011;5008;50.656;7.188;2022-07-06T00:48:51;3.25;;;1.95;;
9938;SDS011;5008;50.656;7.188;2022-07-06T00:51:19;2.72;;;2.22;;
9938;SDS011;5008;50.656;7.188;2022-07-06T00:53:49;2.90;;;1.92;;
9938;SDS011;5008;50.656;7.188;2022-07-06T00:56:16;2.55;;;2.00;;
9938;SDS011;5008;50.656;7.188;2022-07-06T00:58:42;5.75;;;2.50;;
9938;SDS011;5008;50.656;7.188;2022-07-06T01:01:10;2.88;;;1.70;;
9938;SDS011;5008;50.656;7.188;2022-07-06T01:03:36;3.20;;;2.38;;
9938;SDS011;5008;50.656;7.188;2022-07-06T01:06:03;3.63;;;2.00;;
9938;SDS011;5008;50.656;7.188;2022-07-06T01:08:31;1.85;;;1.75;;
9938;SDS011;5008;50.656;7.188;2022-07-06T01:10:58;1.75;;;1.65;;
9938;SDS011;5008;50.656;7.188;2022-07-06T01:13:26;2.50;;;2.05;;
9938;SDS011;5008;50.656;7.188;2022-07-06T01:15:55;4.05;;;2.00;;
9938;SDS011;5008;50.656;7.188;2022-07-06T01:18:22;2.90;;;1.83;;
9938;SDS011;5008;50.656;7.188;2022-07-06T01:20:50;4.55;;;2.45;;
9938;SDS011;5008;50.656;7.188;2022-07-06T01:23:17;2.25;;;2.00;;
9938;SDS011;5008;50.656;7.188;2022-07-06T01:25:43;2.42;;;2.20;;
9938;SDS011;5008;50.656;7.188;2022-07-06T01:28:10;3.65;;;1.83;;
9938;SDS011;5008;50.656;7.188;2022-07-06T01:30:37;3.08;;;2.03;;
9938;SDS011;5008;50.656;7.188;2022-07-06T01:33:04;4.80;;;2.28;;
9938;SDS011;5008;50.656;7.188;2022-07-06T01:35:31;2.25;;;1.90;;
9938;SDS011;5008;50.656;7.188;2022-07-06T01:38:00;2.20;;;2.00;;
9938;SDS011;5008;50.656;7.188;2022-07-06T01:40:27;4.22;;;2.20;;
9938;SDS011;5008;50.656;7.188;2022-07-06T01:42:54;2.47;;;1.92;;
9938;SDS011;5008;50.656;7.188;2022-07-06T01:45:20;2.85;;;1.90;;
9938;SDS011;5008;50.656;7.188;2022-07-06T01:47:47;1.77;;;1.65;;
9938;SDS011;5008;50.656;7.188;2022-07-06T01:50:14;2.70;;;1.92;;
9938;SDS011;5008;50.656;7.188;2022-07-06T01:52:40;4.68;;;1.70;;
9938;SDS011;5008;50.656;7.188;2022-07-06T01:55:09;2.00;;;1.88;;
9938;SDS011;5008;50.656;7.188;2022-07-06T01:57:35;3.92;;;1.75;;
9938;SDS011;5008;50.656;7.188;2022-07-06T02:00:04;3.00;;;1.83;;
9938;SDS011;5008;50.656;7.188;2022-07-06T02:02:32;5.75;;;2.40;;
9938;SDS011;5008;50.656;7.188;2022-07-06T02:04:58;2.50;;;2.30;;
9938;SDS011;5008;50.656;7.188;2022-07-06T02:07:25;3.20;;;2.00;;
9938;SDS011;5008;50.656;7.188;2022-07-06T02:09:52;2.25;;;2.03;;
9938;SDS011;5008;50.656;7.188;2022-07-06T02:12:20;3.13;;;2.42;;
9938;SDS011;5008;50.656;7.188;2022-07-06T02:14:47;3.58;;;2.55;;
9938;SDS011;5008;50.656;7.188;2022-07-06T02:17:13;2.42;;;2.22;;
9938;SDS011;5008;50.656;7.188;2022-07-06T02:19:40;3.00;;;2.13;;
9938;SDS011;5008;50.656;7.188;2022-07-06T02:22:07;3.60;;;2.03;;
9938;SDS011;5008;50.656;7.188;2022-07-06T02:24:33;3.08;;;2.00;;
9938;SDS011;5008;50.656;7.188;2022-07-06T02:27:00;2.28;;;2.08;;
9938;SDS011;5008;50.656;7.188;2022-07-06T02:29:28;2.15;;;1.92;;
9938;SDS011;5008;50.656;7.188;2022-07-06T02:31:55;2.22;;;2.08;;
9938;SDS011;5008;50.656;7.188;2022-07-06T02:34:21;3.95;;;2.53;;
9938;SDS011;5008;50.656;7.188;2022-07-06T02:36:48;4.45;;;2.30;;
9938;SDS011;5008;50.656;7.188;2022-07-06T02:39:15;3.10;;;2.40;;
9938;SDS011;5008;50.656;7.188;2022-07-06T02:41:41;2.28;;;2.00;;
9938;SDS011;5008;50.656;7.188;2022-07-06T02:44:08;3.20;;;2.20;;
9938;SDS011;5008;50.656;7.188;2022-07-06T02:46:36;3.05;;;2.00;;
9938;SDS011;5008;50.656;7.188;2022-07-06T02:49:03;4.07;;;2.20;;
9938;SDS011;5008;50.656;7.188;2022-07-06T02:51:29;3.63;;;2.17;;
9938;SDS011;5008;50.656;7.188;2022-07-06T02:53:56;4.82;;;2.50;;
9938;SDS011;5008;50.656;7.188;2022-07-06T02:56:23;3.13;;;2.47;;
9938;SDS011;5008;50.656;7.188;2022-07-06T02:58:49;2.60;;;2.30;;
9938;SDS011;5008;50.656;7.188;2022-07-06T03:01:16;4.38;;;2.58;;
9938;SDS011;5008;50.656;7.188;2022-07-06T03:03:44;2.70;;;2.40;;
9938;SDS011;5008;50.656;7.188;2022-07-06T03:06:11;3.78;;;2.45;;
9938;SDS011;5008;50.656;7.188;2022-07-06T03:08:38;2.63;;;2.38;;
9938;SDS011;5008;50.656;7.188;2022-07-06T03:11:04;2.92;;;2.40;;
9938;SDS011;5008;50.656;7.188;2022-07-06T03:13:31;2.72;;;2.20;;
9938;SDS011;5008;50.656;7.188;2022-07-06T03:15:58;2.75;;;2.33;;
9938;SDS011;5008;50.656;7.188;2022-07-06T03:18:24;2.78;;;2.47;;
9938;SDS011;5008;50.656;7.188;2022-07-06T03:20:52;2.72;;;2.53;;
9938;SDS011;5008;50.656;7.188;2022-07-06T03:23:19;4.55;;;2.53;;
9938;SDS011;5008;50.656;7.188;2022-07-06T03:25:46;4.28;;;2.50;;
9938;SDS011;5008;50.656;7.188;2022-07-06T03:28:13;3.30;;;2.60;;
9938;SDS011;5008;50.656;7.188;2022-07-06T03:30:39;3.43;;;2.33;;
9938;SDS011;5008;50.656;7.188;2022-07-06T03:33:06;4.47;;;2.65;;
9938;SDS011;5008;50.656;7.188;2022-07-06T03:35:33;3.15;;;2.40;;
9938;SDS011;5008;50.656;7.188;2022-07-06T03:38:01;2.65;;;2.45;;
9938;SDS011;5008;50.656;7.188;2022-07-06T03:40:28;4.85;;;2.58;;
9938;SDS011;5008;50.656;7.188;2022-07-06T03:42:55;4.90;;;2.47;;
9938;SDS011;5008;50.656;7.188;2022-07-06T03:45:22;3.23;;;2.50;;
9938;SDS011;5008;50.656;7.188;2022-07-06T03:47:48;3.90;;;2.47;;
9938;SDS011;5008;50.656;7.188;2022-07-06T03:50:15;3.58;;;2.33;;
9938;SDS011;5008;50.656;7.188;2022-07-06T03:52:42;3.13;;;2.80;;
9938;SDS011;5008;50.656;7.188;2022-07-06T03:55:10;2.60;;;2.40;;
9938;SDS011;5008;50.656;7.188;2022-07-06T03:57:38;3.13;;;2.22;;
9938;SDS011;5008;50.656;7.188;2022-07-06T04:00:06;4.47;;;2.40;;
9938;SDS011;5008;50.656;7.188;2022-07-06T04:02:34;2.78;;;2.58;;
9938;SDS011;5008;50.656;7.188;2022-07-06T04:05:00;4.18;;;2.60;;
9938;SDS011;5008;50.656;7.188;2022-07-06T04:07:27;2.83;;;2.40;;
9938;SDS011;5008;50.656;7.188;2022-07-06T04:09:54;5.28;;;2.88;;
9938;SDS011;5008;50.656;7.188;2022-07-06T04:12:22;3.25;;;2.35;;
9938;SDS011;5008;50.656;7.188;2022-07-06T04:14:48;2.40;;;2.15;;
9938;SDS011;5008;50.656;7.188;2022-07-06T04:17:15;5.38;;;2.10;;
9938;SDS011;5008;50.656;7.188;2022-07-06T04:19:59;3.55;;;2.58;;
9938;SDS011;5008;50.656;7.188;2022-07-06T04:22:26;2.25;;;2.00;;
9938;SDS011;5008;50.656;7.188;2022-07-06T04:24:53;2.83;;;2.40;;
9938;SDS011;5008;50.656;7.188;2022-07-06T04:27:21;2.87;;;2.23;;
9938;SDS011;5008;50.656;7.188;2022-07-06T04:29:48;2.47;;;2.10;;
9938;SDS011;5008;50.656;7.188;2022-07-06T04:32:14;2.43;;;2.10;;
9938;SDS011;5008;50.656;7.188;2022-07-06T04:34:41;2.65;;;2.20;;
9938;SDS011;5008;50.656;7.188;2022-07-06T04:37:08;3.23;;;2.37;;
9938;SDS011;5008;50.656;7.188;2022-07-06T04:39:34;2.42;;;2.20;;
9938;SDS011;5008;50.656;7.188;2022-07-06T04:42:01;3.25;;;2.22;;
9938;SDS011;5008;50.656;7.188;2022-07-06T04:44:30;3.97;;;2.30;;
9938;SDS011;5008;50.656;7.188;2022-07-06T04:46:56;2.33;;;2.13;;
9938;SDS011;5008;50.656;7.188;2022-07-06T04:49:23;3.22;;;1.88;;
9938;SDS011;5008;50.656;7.188;2022-07-06T04:51:50;3.30;;;2.33;;
9938;SDS011;5008;50.656;7.188;2022-07-06T04:54:17;4.63;;;2.20;;
9938;SDS011;5008;50.656;7.188;2022-07-06T04:56:43;3.42;;;2.20;;
9938;SDS011;5008;50.656;7.188;2022-07-06T04:59:11;2.88;;;2.05;;
9938;SDS011;5008;50.656;7.188;2022-07-06T05:01:39;2.67;;;2.13;;
9938;SDS011;5008;50.656;7.188;2022-07-06T05:04:06;2.75;;;2.50;;
9938;SDS011;5008;50.656;7.188;2022-07-06T05:06:33;2.50;;;2.30;;
9938;SDS011;5008;50.656;7.188;2022-07-06T05:09:00;3.28;;;2.40;;
9938;SDS011;5008;50.656;7.188;2022-07-06T05:11:27;3.00;;;2.20;;
9938;SDS011;5008;50.656;7.188;2022-07-06T05:13:54;3.03;;;2.25;;
9938;SDS011;5008;50.656;7.188;2022-07-06T05:16:20;2.28;;;2.10;;
9938;SDS011;5008;50.656;7.188;2022-07-06T05:18:49;2.95;;;2.63;;
9938;SDS011;5008;50.656;7.188;2022-07-06T05:21:15;2.92;;;2.55;;
9938;SDS011;5008;50.656;7.188;2022-07-06T05:23:42;3.55;;;2.22;;
9938;SDS011;5008;50.656;7.188;2022-07-06T05:26:09;4.55;;;2.55;;
9938;SDS011;5008;50.656;7.188;2022-07-06T05:28:35;5.53;;;2.60;;
9938;SDS011;5008;50.656;7.188;2022-07-06T05:31:02;3.97;;;2.58;;
9938;SDS011;5008;50.656;7.188;2022-07-06T05:33:29;2.53;;;2.25;;
9938;SDS011;5008;50.656;7.188;2022-07-06T05:35:57;2.90;;;2.10;;
9938;SDS011;5008;50.656;7.188;2022-07-06T05:38:24;3.75;;;2.28;;
9938;SDS011;5008;50.656;7.188;2022-07-06T05:40:51;3.72;;;2.42;;
9938;SDS011;5008;50.656;7.188;2022-07-06T05:43:17;3.53;;;2.80;;
9938;SDS011;5008;50.656;7.188;2022-07-06T05:45:44;3.63;;;2.70;;
9938;SDS011;5008;50.656;7.188;2022-07-06T05:48:11;4.18;;;2.67;;
9938;SDS011;5008;50.656;7.188;2022-07-06T05:50:56;2.72;;;2.50;;
9938;SDS011;5008;50.656;7.188;2022-07-06T05:53:23;3.67;;;2.80;;
9938;SDS011;5008;50.656;7.188;2022-07-06T05:55:50;5.13;;;3.05;;
9938;SDS011;5008;50.656;7.188;2022-07-06T05:58:16;4.68;;;2.42;;
9938;SDS011;5008;50.656;7.188;2022-07-06T06:00:43;5.22;;;2.70;;
9938;SDS011;5008;50.656;7.188;2022-07-06T06:03:10;3.83;;;2.70;;
9938;SDS011;5008;50.656;7.188;2022-07-06T06:05:37;3.85;;;2.50;;
9938;SDS011;5008;50.656;7.188;2022-07-06T06:08:05;3.10;;;2.42;;
9938;SDS011;5008;50.656;7.188;2022-07-06T06:10:32;5.85;;;2.30;;
9938;SDS011;5008;50.656;7.188;2022-07-06T06:12:58;5.35;;;2.63;;
9938;SDS011;5008;50.656;7.188;2022-07-06T06:15:25;2.97;;;2.35;;
9938;SDS011;5008;50.656;7.188;2022-07-06T06:17:52;3.90;;;2.20;;
9938;SDS011;5008;50.656;7.188;2022-07-06T06:20:18;2.72;;;2.22;;
9938;SDS011;5008;50.656;7.188;2022-07-06T06:22:46;2.20;;;2.00;;
9938;SDS011;5008;50.656;7.188;2022-07-06T06:25:15;3.20;;;1.90;;
9938;SDS011;5008;50.656;7.188;2022-07-06T06:27:42;3.08;;;1.83;;
9938;SDS011;5008;50.656;7.188;2022-07-06T06:30:10;3.88;;;2.28;;
9938;SDS011;5008;50.656;7.188;2022-07-06T06:32:38;3.25;;;2.15;;
9938;SDS011;5008;50.656;7.188;2022-07-06T06:35:05;3.97;;;2.30;;
9938;SDS011;5008;50.656;7.188;2022-07-06T06:37:32;4.63;;;2.30;;
9938;SDS011;5008;50.656;7.188;2022-07-06T06:40:00;4.60;;;2.20;;
9938;SDS011;5008;50.656;7.188;2022-07-06T06:42:28;4.88;;;2.20;;
9938;SDS011;5008;50.656;7.188;2022-07-06T06:44:55;4.13;;;2.25;;
9938;SDS011;5008;50.656;7.188;2022-07-06T06:47:22;2.85;;;2.33;;
9938;SDS011;5008;50.656;7.188;2022-07-06T06:49:49;2.58;;;2.10;;
9938;SDS011;5008;50.656;7.188;2022-07-06T06:52:15;6.10;;;2.83;;
9938;SDS011;5008;50.656;7.188;2022-07-06T06:54:42;5.28;;;2.88;;
9938;SDS011;5008;50.656;7.188;2022-07-06T06:57:09;2.72;;;2.20;;
9938;SDS011;5008;50.656;7.188;2022-07-06T06:59:37;2.63;;;2.17;;
9938;SDS011;5008;50.656;7.188;2022-07-06T07:02:04;6.20;;;2.80;;
9938;SDS011;5008;50.656;7.188;2022-07-06T07:04:30;2.65;;;2.25;;
9938;SDS011;5008;50.656;7.188;2022-07-06T07:06:57;6.13;;;2.85;;
9938;SDS011;5008;50.656;7.188;2022-07-06T07:09:24;2.10;;;1.90;;
9938;SDS011;5008;50.656;7.188;2022-07-06T07:11:51;2.70;;;2.40;;
9938;SDS011;5008;50.656;7.188;2022-07-06T07:14:17;4.43;;;2.38;;
9938;SDS011;5008;50.656;7.188;2022-07-06T07:16:45;3.58;;;2.10;;
9938;SDS011;5008;50.656;7.188;2022-07-06T07:19:12;3.08;;;2.13;;
9938;SDS011;5008;50.656;7.188;2022-07-06T07:21:39;2.72;;;2.28;;
9938;SDS011;5008;50.656;7.188;2022-07-06T07:24:06;2.28;;;2.08;;
9938;SDS011;5008;50.656;7.188;2022-07-06T07:26:33;4.32;;;2.30;;
9938;SDS011;5008;50.656;7.188;2022-07-06T07:29:00;2.38;;;2.15;;
9938;SDS011;5008;50.656;7.188;2022-07-06T07:31:27;3.97;;;2.10;;
9938;SDS011;5008;50.656;7.188;2022-07-06T07:33:55;4.53;;;2.47;;
9938;SDS011;5008;50.656;7.188;2022-07-06T07:36:23;3.75;;;2.08;;
9938;SDS011;5008;50.656;7.188;2022-07-06T07:38:50;2.40;;;2.20;;
9938;SDS011;5008;50.656;7.188;2022-07-06T07:41:17;3.05;;;2.08;;
9938;SDS011;5008;50.656;7.188;2022-07-06T07:43:44;4.72;;;2.30;;
9938;SDS011;5008;50.656;7.188;2022-07-06T07:46:11;2.83;;;1.90;;
9938;SDS011;5008;50.656;7.188;2022-07-06T07:48:37;3.15;;;2.22;;
9938;SDS011;5008;50.656;7.188;2022-07-06T07:51:06;3.72;;;1.70;;
9938;SDS011;5008;50.656;7.188;2022-07-06T07:53:33;3.00;;;1.60;;
9938;SDS011;5008;50.656;7.188;2022-07-06T07:55:59;1.50;;;1.40;;
9938;SDS011;5008;50.656;7.188;2022-07-06T07:58:26;2.47;;;1.65;;
9938;SDS011;5008;50.656;7.188;2022-07-06T08:00:53;1.73;;;1.63;;
9938;SDS011;5008;50.656;7.188;2022-07-06T08:03:20;4.28;;;2.50;;
9938;SDS011;5008;50.656;7.188;2022-07-06T08:05:47;1.58;;;1.42;;
9938;SDS011;5008;50.656;7.188;2022-07-06T08:08:15;1.58;;;1.48;;
9938;SDS011;5008;50.656;7.188;2022-07-06T08:10:42;3.03;;;1.60;;
9938;SDS011;5008;50.656;7.188;2022-07-06T08:13:09;2.67;;;1.52;;
9938;SDS011;5008;50.656;7.188;2022-07-06T08:15:35;1.35;;;1.13;;
9938;SDS011;5008;50.656;7.188;2022-07-06T08:18:02;4.22;;;1.45;;
9938;SDS011;5008;50.656;7.188;2022-07-06T08:20:29;1.88;;;1.50;;
9938;SDS011;5008;50.656;7.188;2022-07-06T08:22:56;2.88;;;1.50;;
9938;SDS011;5008;50.656;7.188;2022-07-06T08:25:24;2.30;;;1.15;;
9938;SDS011;5008;50.656;7.188;2022-07-06T08:27:51;1.70;;;1.60;;
9938;SDS011;5008;50.656;7.188;2022-07-06T08:30:18;1.65;;;1.42;;
9938;SDS011;5008;50.656;7.188;2022-07-06T08:32:44;4.45;;;1.60;;
9938;SDS011;5008;50.656;7.188;2022-07-06T08:35:11;1.77;;;1.60;;
9938;SDS011;5008;50.656;7.188;2022-07-06T08:37:38;1.58;;;1.45;;
9938;SDS011;5008;50.656;7.188;2022-07-06T08:40:06;2.70;;;1.85;;
9938;SDS011;5008;50.656;7.188;2022-07-06T08:42:37;1.70;;;1.60;;
9938;SDS011;5008;50.656;7.188;2022-07-06T08:45:04;3.70;;;2.00;;
9938;SDS011;5008;50.656;7.188;2022-07-06T08:47:32;2.40;;;1.90;;
9938;SDS011;5008;50.656;7.188;2022-07-06T08:50:03;4.93;;;2.38;;
9938;SDS011;5008;50.656;7.188;2022-07-06T08:52:30;4.85;;;2.00;;
9938;SDS011;5008;50.656;7.188;2022-07-06T08:54:57;3.75;;;2.50;;
9938;SDS011;5008;50.656;7.188;2022-07-06T08:57:25;3.50;;;2.33;;
9938;SDS011;5008;50.656;7.188;2022-07-06T08:59:53;3.92;;;2.60;;
9938;SDS011;5008;50.656;7.188;2022-07-06T09:02:21;2.35;;;1.80;;
9938;SDS011;5008;50.656;7.188;2022-07-06T09:04:50;2.28;;;1.77;;
9938;SDS011;5008;50.656;7.188;2022-07-06T09:07:21;3.80;;;2.08;;
9938;SDS011;5008;50.656;7.188;2022-07-06T09:09:48;4.47;;;2.75;;
9938;SDS011;5008;50.656;7.188;2022-07-06T09:12:17;2.97;;;2.67;;
9938;SDS011;5008;50.656;7.188;2022-07-06T09:14:44;3.00;;;2.20;;
9938;SDS011;5008;50.656;7.188;2022-07-06T09:17:12;5.63;;;3.55;;
9938;SDS011;5008;50.656;7.188;2022-07-06T09:19:39;4.10;;;2.40;;
9938;SDS011;5008;50.656;7.188;2022-07-06T09:22:06;3.67;;;2.42;;
9938;SDS011;5008;50.656;7.188;2022-07-06T09:24:32;5.88;;;2.67;;
9938;SDS011;5008;50.656;7.188;2022-07-06T09:27:14;4.07;;;2.20;;
9938;SDS011;5008;50.656;7.188;2022-07-06T09:29:41;3.47;;;1.92;;
9938;SDS011;5008;50.656;7.188;2022-07-06T09:32:08;2.55;;;1.90;;
9938;SDS011;5008;50.656;7.188;2022-07-06T09:34:43;3.50;;;2.33;;
9938;SDS011;5008;50.656;7.188;2022-07-06T09:37:11;2.53;;;1.98;;
9938;SDS011;5008;50.656;7.188;2022-07-06T09:39:39;2.47;;;2.20;;
9938;SDS011;5008;50.656;7.188;2022-07-06T09:42:08;2.95;;;1.90;;
9938;SDS011;5008;50.656;7.188;2022-07-06T09:44:36;2.75;;;1.88;;
9938;SDS011;5008;50.656;7.188;2022-07-06T09:47:04;3.22;;;1.90;;
9938;SDS011;5008;50.656;7.188;2022-07-06T09:49:33;1.77;;;1.55;;
9938;SDS011;5008;50.656;7.188;2022-07-06T09:52:01;1.40;;;1.30;;
9938;SDS011;5008;50.656;7.188;2022-07-06T09:54:29;1.65;;;1.38;;
9938;SDS011;5008;50.656;7.188;2022-07-06T09:56:56;4.50;;;1.75;;
9938;SDS011;5008;50.656;7.188;2022-07-06T09:59:24;2.65;;;1.80;;
9938;SDS011;5008;50.656;7.188;2022-07-06T10:01:53;2.75;;;1.60;;
9938;SDS011;5008;50.656;7.188;2022-07-06T10:04:21;2.97;;;1.55;;
9938;SDS011;5008;50.656;7.188;2022-07-06T10:06:49;3.35;;;1.77;;
9938;SDS011;5008;50.656;7.188;2022-07-06T10:09:19;2.83;;;1.92;;
9938;SDS011;5008;50.656;7.188;2022-07-06T10:11:47;2.47;;;1.52;;
9938;SDS011;5008;50.656;7.188;2022-07-06T10:14:17;2.08;;;1.52;;
9938;SDS011;5008;50.656;7.188;2022-07-06T10:16:46;2.13;;;1.90;;
9938;SDS011;5008;50.656;7.188;2022-07-06T10:19:13;2.70;;;1.75;;
9938;SDS011;5008;50.656;7.188;2022-07-06T10:21:41;3.15;;;2.05;;
9938;SDS011;5008;50.656;7.188;2022-07-06T10:24:08;2.03;;;1.63;;
9938;SDS011;5008;50.656;7.188;2022-07-06T10:26:39;2.25;;;1.67;;
9938;SDS011;5008;50.656;7.188;2022-07-06T10:29:07;1.58;;;1.48;;
9938;SDS011;5008;50.656;7.188;2022-07-06T10:31:34;2.15;;;1.77;;
9938;SDS011;5008;50.656;7.188;2022-07-06T10:34:04;1.77;;;1.58;;
9938;SDS011;5008;50.656;7.188;2022-07-06T10:36:36;2.50;;;2.30;;
9938;SDS011;5008;50.656;7.188;2022-07-06T10:39:04;2.50;;;2.08;;
9938;SDS011;5008;50.656;7.188;2022-07-06T10:41:58;2.00;;;1.60;;
9938;SDS011;5008;50.656;7.188;2022-07-06T10:44:24;3.55;;;1.60;;
9938;SDS011;5008;50.656;7.188;2022-07-06T10:46:53;3.17;;;2.42;;
9938;SDS011;5008;50.656;7.188;2022-07-06T10:49:21;2.63;;;1.88;;
9938;SDS011;5008;50.656;7.188;2022-07-06T10:51:48;3.00;;;1.40;;
9938;SDS011;5008;50.656;7.188;2022-07-06T10:54:16;2.03;;;1.60;;
9938;SDS011;5008;50.656;7.188;2022-07-06T10:56:44;2.22;;;2.00;;
9938;SDS011;5008;50.656;7.188;2022-07-06T10:59:14;2.35;;;1.60;;
9938;SDS011;5008;50.656;7.188;2022-07-06T11:04:39;2.92;;;2.20;;
9938;SDS011;5008;50.656;7.188;2022-07-06T11:07:08;2.70;;;2.05;;
9938;SDS011;5008;50.656;7.188;2022-07-06T11:09:36;1.88;;;1.77;;
9938;SDS011;5008;50.656;7.188;2022-07-06T11:12:11;2.38;;;2.00;;
9938;SDS011;5008;50.656;7.188;2022-07-06T11:14:42;3.15;;;2.13;;
9938;SDS011;5008;50.656;7.188;2022-07-06T11:17:09;2.17;;;1.80;;
9938;SDS011;5008;50.656;7.188;2022-07-06T11:19:37;1.70;;;1.52;;
9938;SDS011;5008;50.656;7.188;2022-07-06T11:22:07;2.75;;;2.08;;
9938;SDS011;5008;50.656;7.188;2022-07-06T11:24:35;5.03;;;2.00;;
9938;SDS011;5008;50.656;7.188;2022-07-06T11:27:04;2.90;;;1.90;;
9938;SDS011;5008;50.656;7.188;2022-07-06T11:29:32;3.28;;;1.77;;
9938;SDS011;5008;50.656;7.188;2022-07-06T11:32:03;1.85;;;1.75;;
9938;SDS011;5008;50.656;7.188;2022-07-06T11:34:31;1.83;;;1.73;;
9938;SDS011;5008;50.656;7.188;2022-07-06T11:36:59;3.65;;;2.10;;
9938;SDS011;5008;50.656;7.188;2022-07-06T11:39:28;2.30;;;2.10;;
9938;SDS011;5008;50.656;7.188;2022-07-06T11:41:55;1.90;;;1.80;;
9938;SDS011;5008;50.656;7.188;2022-07-06T11:44:23;2.28;;;2.00;;
9938;SDS011;5008;50.656;7.188;2022-07-06T11:46:50;2.35;;;2.13;;
9938;SDS011;5008;50.656;7.188;2022-07-06T11:49:18;2.55;;;2.10;;
9938;SDS011;5008;50.656;7.188;2022-07-06T11:51:45;3.05;;;2.75;;
9938;SDS011;5008;50.656;7.188;2022-07-06T11:54:13;5.32;;;2.55;;
9938;SDS011;5008;50.656;7.188;2022-07-06T11:56:45;2.00;;;1.90;;
9938;SDS011;5008;50.656;7.188;2022-07-06T11:59:12;3.03;;;2.00;;
9938;SDS011;5008;50.656;7.188;2022-07-06T12:01:41;4.35;;;1.90;;
9938;SDS011;5008;50.656;7.188;2022-07-06T12:04:09;3.33;;;1.65;;
9938;SDS011;5008;50.656;7.188;2022-07-06T12:06:38;1.30;;;1.10;;
9938;SDS011;5008;50.656;7.188;2022-07-06T12:09:05;1.75;;;1.30;;
9938;SDS011;5008;50.656;7.188;2022-07-06T12:11:32;2.60;;;1.50;;
9938;SDS011;5008;50.656;7.188;2022-07-06T12:14:00;2.53;;;1.58;;
9938;SDS011;5008;50.656;7.188;2022-07-06T12:16:29;2.20;;;1.33;;
9938;SDS011;5008;50.656;7.188;2022-07-06T12:18:58;2.50;;;1.40;;
9938;SDS011;5008;50.656;7.188;2022-07-06T12:21:25;1.63;;;1.30;;
9938;SDS011;5008;50.656;7.188;2022-07-06T12:23:53;2.10;;;1.60;;
9938;SDS011;5008;50.656;7.188;2022-07-06T12:26:21;1.38;;;1.27;;
9938;SDS011;5008;50.656;7.188;2022-07-06T12:29:00;1.63;;;1.25;;
9938;SDS011;5008;50.656;7.188;2022-07-06T12:31:30;1.58;;;1.33;;
9938;SDS011;5008;50.656;7.188;2022-07-06T12:33:58;1.38;;;1.27;;
9938;SDS011;5008;50.656;7.188;2022-07-06T12:36:25;2.10;;;1.45;;
9938;SDS011;5008;50.656;7.188;2022-07-06T12:38:51;1.40;;;1.30;;
9938;SDS011;5008;50.656;7.188;2022-07-06T12:41:30;1.58;;;1.30;;
9938;SDS011;5008;50.656;7.188;2022-07-06T12:44:05;2.22;;;1.20;;
9938;SDS011;5008;50.656;7.188;2022-07-06T12:46:33;2.55;;;1.45;;
9938;SDS011;5008;50.656;7.188;2022-07-06T12:49:02;1.48;;;1.38;;
9938;SDS011;5008;50.656;7.188;2022-07-06T12:51:58;2.92;;;1.70;;
9938;SDS011;5008;50.656;7.188;2022-07-06T12:54:29;2.63;;;1.33;;
9938;SDS011;5008;50.656;7.188;2022-07-06T12:57:00;2.42;;;1.20;;
9938;SDS011;5008;50.656;7.188;2022-07-06T12:59:28;1.77;;;1.33;;
9938;SDS011;5008;50.656;7.188;2022-07-06T13:01:56;2.95;;;1.50;;
9938;SDS011;5008;50.656;7.188;2022-07-06T13:04:24;1.48;;;1.30;;
9938;SDS011;5008;50.656;7.188;2022-07-06T13:06:52;1.33;;;1.23;;
9938;SDS011;5008;50.656;7.188;2022-07-06T13:09:19;1.98;;;1.10;;
9938;SDS011;5008;50.656;7.188;2022-07-06T13:11:48;1.50;;;1.40;;
9938;SDS011;5008;50.656;7.188;2022-07-06T13:14:16;3.63;;;1.50;;
9938;SDS011;5008;50.656;7.188;2022-07-06T13:16:44;1.58;;;1.13;;
9938;SDS011;5008;50.656;7.188;2022-07-06T13:19:11;3.47;;;1.25;;
9938;SDS011;5008;50.656;7.188;2022-07-06T13:21:38;2.65;;;1.33;;
9938;SDS011;5008;50.656;7.188;2022-07-06T13:24:06;1.35;;;1.25;;
9938;SDS011;5008;50.656;7.188;2022-07-06T13:26:33;1.40;;;1.30;;
9938;SDS011;5008;50.656;7.188;2022-07-06T13:29:01;1.38;;;1.27;;
9938;SDS011;5008;50.656;7.188;2022-07-06T13:31:28;1.30;;;1.20;;
9938;SDS011;5008;50.656;7.188;2022-07-06T13:33:55;1.55;;;1.15;;
9938;SDS011;5008;50.656;7.188;2022-07-06T13:36:23;3.15;;;1.20;;
9938;SDS011;5008;50.656;7.188;2022-07-06T13:38:49;2.55;;;1.60;;
9938;SDS011;5008;50.656;7.188;2022-07-06T13:41:16;3.75;;;1.50;;
9938;SDS011;5008;50.656;7.188;2022-07-06T13:43:43;1.50;;;1.33;;
9938;SDS011;5008;50.656;7.188;2022-07-06T13:46:11;1.45;;;1.30;;
9938;SDS011;5008;50.656;7.188;2022-07-06T13:48:37;1.80;;;1.38;;
9938;SDS011;5008;50.656;7.188;2022-07-06T13:51:04;2.78;;;1.60;;
9938;SDS011;5008;50.656;7.188;2022-07-06T13:53:31;2.85;;;1.60;;
9938;SDS011;5008;50.656;7.188;2022-07-06T13:55:58;1.30;;;1.20;;
9938;SDS011;5008;50.656;7.188;2022-07-06T13:58:25;3.25;;;1.50;;
9938;SDS011;5008;50.656;7.188;2022-07-06T14:00:52;1.50;;;1.40;;
9938;SDS011;5008;50.656;7.188;2022-07-06T14:03:20;2.50;;;1.58;;
9938;SDS011;5008;50.656;7.188;2022-07-06T14:05:52;1.33;;;1.23;;
9938;SDS011;5008;50.656;7.188;2022-07-06T14:08:19;1.85;;;1.50;;
9938;SDS011;5008;50.656;7.188;2022-07-06T14:10:46;1.33;;;1.30;;
9938;SDS011;5008;50.656;7.188;2022-07-06T14:13:13;1.77;;;1.67;;
9938;SDS011;5008;50.656;7.188;2022-07-06T14:15:39;1.85;;;1.30;;
9938;SDS011;5008;50.656;7.188;2022-07-06T14:18:06;1.60;;;1.50;;
9938;SDS011;5008;50.656;7.188;2022-07-06T14:20:34;1.98;;;1.30;;
9938;SDS011;5008;50.656;7.188;2022-07-06T14:23:01;1.52;;;1.15;;
9938;SDS011;5008;50.656;7.188;2022-07-06T14:25:28;1.77;;;1.15;;
9938;SDS011;5008;50.656;7.188;2022-07-06T14:27:54;1.50;;;1.40;;
9938;SDS011;5008;50.656;7.188;2022-07-06T14:30:21;1.50;;;1.40;;
9938;SDS011;5008;50.656;7.188;2022-07-06T14:32:49;2.35;;;1.45;;
9938;SDS011;5008;50.656;7.188;2022-07-06T14:35:15;2.33;;;1.60;;
9938;SDS011;5008;50.656;7.188;2022-07-06T14:37:44;1.50;;;1.40;;
9938;SDS011;5008;50.656;7.188;2022-07-06T14:40:11;1.85;;;1.10;;
9938;SDS011;5008;50.656;7.188;2022-07-06T14:42:37;1.33;;;1.10;;
9938;SDS011;5008;50.656;7.188;2022-07-06T14:45:04;1.15;;;1.13;;
9938;SDS011;5008;50.656;7.188;2022-07-06T14:47:32;2.90;;;1.67;;
9938;SDS011;5008;50.656;7.188;2022-07-06T14:50:00;2.15;;;1.48;;
9938;SDS011;5008;50.656;7.188;2022-07-06T14:52:27;1.40;;;1.15;;
9938;SDS011;5008;50.656;7.188;2022-07-06T14:54:55;1.42;;;1.30;;
9938;SDS011;5008;50.656;7.188;2022-07-06T14:57:24;2.30;;;1.20;;
9938;SDS011;5008;50.656;7.188;2022-07-06T14:59:51;3.53;;;1.50;;
9938;SDS011;5008;50.656;7.188;2022-07-06T15:02:18;1.45;;;1.35;;
9938;SDS011;5008;50.656;7.188;2022-07-06T15:04:44;1.83;;;1.10;;
9938;SDS011;5008;50.656;7.188;2022-07-06T15:07:11;1.30;;;1.20;;
9938;SDS011;5008;50.656;7.188;2022-07-06T15:09:38;2.30;;;1.00;;
9938;SDS011;5008;50.656;7.188;2022-07-06T15:12:06;1.70;;;0.73;;
9938;SDS011;5008;50.656;7.188;2022-07-06T15:14:34;2.67;;;1.10;;
9938;SDS011;5008;50.656;7.188;2022-07-06T15:17:00;1.08;;;1.00;;
9938;SDS011;5008;50.656;7.188;2022-07-06T15:19:27;1.25;;;1.13;;
9938;SDS011;5008;50.656;7.188;2022-07-06T15:21:54;1.40;;;0.80;;